| time (UTC) | temp C | wind direction | speed KPH | gust KPH | rain 1hr cm | rain 24hr cm | rain mn cm | humidity % | barometer mb |
| 20260508114730 | 14 | 345 | 12.9 | 27.4 | 0.00 | 0.00 | 0.00 | 19 | 1026.2 |
| 20260508112730 | 14 | 311 | 11.3 | 27.4 | 0.00 | 0.00 | 0.00 | 21 | 1026.2 |
| 20260508110730 | 14 | 334 | 16.1 | 30.6 | 0.00 | 0.00 | 0.00 | 21 | 1026.3 |
| 20260508104730 | 13 | 342 | 11.3 | 25.7 | 0.00 | 0.00 | 0.00 | 22 | 1026.4 |
| 20260508102729 | 13 | 335 | 9.7 | 20.9 | 0.00 | 0.00 | 0.00 | 23 | 1026.3 |
| 20260508100729 | 13 | 3 | 14.5 | 29.0 | 0.00 | 0.00 | 0.00 | 25 | 1026.2 |
| 20260508094729 | 12 | 355 | 14.5 | 27.4 | 0.00 | 0.00 | 0.00 | 27 | 1026.1 |
| 20260508092729 | 13 | 350 | 14.5 | 30.6 | 0.00 | 0.00 | 0.00 | 28 | 1026.1 |
| 20260508090729 | 12 | 318 | 14.5 | 30.6 | 0.00 | 0.00 | 0.00 | 29 | 1026.2 |
| 20260508084729 | 12 | 329 | 14.5 | 32.2 | 0.00 | 0.00 | 0.00 | 30 | 1026.3 |
| 20260508082729 | 12 | 344 | 14.5 | 30.6 | 0.00 | 0.00 | 0.00 | 31 | 1026.3 |
| 20260508080730 | 11 | 346 | 14.5 | 30.6 | 0.00 | 0.00 | 0.00 | 33 | 1026.3 |
| 20260508074729 | 11 | 350 | 12.9 | 32.2 | 0.00 | 0.00 | 0.00 | 33 | 1026.1 |
| 20260508072729 | 10 | 345 | 14.5 | 27.4 | 0.00 | 0.00 | 0.00 | 34 | 1026.0 |
| 20260508070730 | 10 | 326 | 12.9 | 24.1 | 0.00 | 0.00 | 0.00 | 36 | 1025.9 |
| 20260508064729 | 10 | 339 | 14.5 | 25.7 | 0.00 | 0.00 | 0.00 | 38 | 1025.7 |
| 20260508062729 | 9 | 344 | 16.1 | 33.8 | 0.00 | 0.00 | 0.00 | 39 | 1025.5 |
| 20260508060729 | 8 | 333 | 16.1 | 27.4 | 0.00 | 0.00 | 0.00 | 42 | 1025.3 |
| 20260508054729 | 8 | 336 | 14.5 | 25.7 | 0.00 | 0.00 | 0.00 | 47 | 1025.2 |
| 20260508052730 | 7 | 335 | 14.5 | 27.4 | 0.00 | 0.00 | 0.00 | 49 | 1025.0 |
| 20260508050729 | 6 | 339 | 14.5 | 27.4 | 0.00 | 0.00 | 0.00 | 53 | 1024.8 |
| 20260508044729 | 6 | 339 | 9.7 | 20.9 | 0.00 | 0.00 | 0.00 | 54 | 1024.6 |
| 20260508042729 | 5 | 335 | 9.7 | 17.7 | 0.00 | 0.00 | 0.00 | 58 | 1024.5 |
| 20260508040729 | 3 | 336 | 9.7 | 19.3 | 0.00 | 0.00 | 0.00 | 62 | 1024.2 |
| 20260508034729 | 3 | 336 | 9.7 | 19.3 | 0.00 | 0.00 | 0.00 | 64 | 1024.1 |
| 20260508032729 | 2 | 331 | 12.9 | 19.3 | 0.00 | 0.00 | 0.00 | 67 | 1023.9 |
| 20260508030728 | 1 | 326 | 11.3 | 19.3 | 0.00 | 0.00 | 0.00 | 69 | 1023.7 |
| 20260508024728 | 1 | 330 | 11.3 | 19.3 | 0.00 | 0.00 | 0.00 | 68 | 1023.5 |
| 20260508022728 | 1 | 331 | 12.9 | 20.9 | 0.00 | 0.00 | 0.00 | 68 | 1023.2 |
| 20260508020728 | 1 | 327 | 12.9 | 17.7 | 0.00 | 0.00 | 0.00 | 68 | 1023.0 |
| 20260508014728 | 1 | 326 | 9.7 | 17.7 | 0.00 | 0.00 | 0.00 | 69 | 1022.9 |
| 20260508010728 | 1 | 322 | 8.0 | 12.9 | 0.00 | 0.00 | 0.00 | 65 | 1022.4 |
| 20260508004728 | 2 | 330 | 8.0 | 14.5 | 0.00 | 0.00 | 0.00 | 62 | 1022.1 |
| 20260508002728 | 3 | 327 | 9.7 | 19.3 | 0.00 | 0.00 | 0.00 | 60 | 1021.8 |
| 20260508000728 | 3 | 323 | 11.3 | 20.9 | 0.00 | 0.00 | 0.00 | 60 | 1021.6 |
| 20260507234728 | 3 | 320 | 11.3 | 17.7 | 0.00 | 0.00 | 0.00 | 59 | 1021.3 |
| 20260507232728 | 3 | 316 | 11.3 | 17.7 | 0.00 | 0.00 | 0.00 | 59 | 1021.2 |
| 20260507230728 | 3 | 314 | 11.3 | 19.3 | 0.00 | 0.00 | 0.00 | 57 | 1020.8 |
| 20260507224727 | 4 | 311 | 11.3 | 19.3 | 0.00 | 0.00 | 0.00 | 55 | 1020.5 |
| 20260507222728 | 4 | 309 | 11.3 | 19.3 | 0.00 | 0.00 | 0.00 | 53 | 1020.3 |
| 20260507220727 | 5 | 310 | 11.3 | 20.9 | 0.00 | 0.00 | 0.00 | 51 | 1020.1 |
| 20260507214727 | 5 | 305 | 11.3 | 22.5 | 0.00 | 0.00 | 0.00 | 50 | 1019.9 |
| 20260507212727 | 5 | 306 | 12.9 | 19.3 | 0.00 | 0.00 | 0.00 | 49 | 1019.6 |
| 20260507210727 | 5 | 300 | 12.9 | 22.5 | 0.00 | 0.00 | 0.00 | 49 | 1019.3 |
| 20260507204727 | 5 | 305 | 11.3 | 17.7 | 0.00 | 0.00 | 0.00 | 48 | 1019.1 |
| 20260507202727 | 5 | 313 | 11.3 | 17.7 | 0.00 | 0.00 | 0.00 | 44 | 1018.8 |
| 20260507200728 | 5 | 307 | 11.3 | 19.3 | 0.00 | 0.00 | 0.00 | 45 | 1018.6 |
| 20260507194727 | 5 | 319 | 9.7 | 17.7 | 0.00 | 0.00 | 0.00 | 40 | 1018.2 |
| 20260507192727 | 5 | 303 | 9.7 | 12.9 | 0.00 | 0.00 | 0.00 | 40 | 1017.8 |
| 20260507190726 | 5 | 269 | 6.4 | 11.3 | 0.00 | 0.00 | 0.00 | 40 | 1017.7 |
| 20260507184727 | 6 | 230 | 4.8 | 9.7 | 0.00 | 0.00 | 0.00 | 38 | 1017.3 |
| 20260507182726 | 7 | 210 | 6.4 | 12.9 | 0.00 | 0.00 | 0.00 | 38 | 1017.2 |
| 20260507180726 | 7 | 199 | 9.7 | 17.7 | 0.00 | 0.00 | 0.00 | 41 | 1016.9 |
| 20260507174726 | 8 | 189 | 9.7 | 20.9 | 0.00 | 0.00 | 0.00 | 38 | 1016.8 |
| 20260507172726 | 8 | 186 | 8.0 | 16.1 | 0.00 | 0.00 | 0.00 | 36 | 1016.7 |
| 20260507170726 | 9 | 194 | 11.3 | 22.5 | 0.00 | 0.00 | 0.00 | 35 | 1016.5 |
| 20260507164727 | 10 | 195 | 9.7 | 20.9 | 0.00 | 0.00 | 0.00 | 34 | 1016.4 |
| 20260507162726 | 10 | 152 | 14.5 | 22.5 | 0.00 | 0.00 | 0.00 | 34 | 1016.2 |
| 20260507160726 | 10 | 141 | 14.5 | 29.0 | 0.00 | 0.00 | 0.00 | 31 | 1016.1 |
| 20260507154726 | 11 | 143 | 14.5 | 24.1 | 0.00 | 0.00 | 0.00 | 28 | 1015.9 |
| 20260507152725 | 11 | 153 | 12.9 | 27.4 | 0.00 | 0.00 | 0.00 | 29 | 1015.8 |
| 20260507150727 | 12 | 164 | 9.7 | 19.3 | 0.00 | 0.00 | 0.00 | 26 | 1015.7 |
| 20260507144727 | 12 | 152 | 8.0 | 16.1 | 0.00 | 0.00 | 0.00 | 26 | 1015.6 |
| 20260507142726 | 12 | 158 | 11.3 | 20.9 | 0.00 | 0.00 | 0.00 | 25 | 1015.6 |
| 20260507140726 | 12 | 154 | 9.7 | 19.3 | 0.00 | 0.00 | 0.00 | 25 | 1015.4 |
| 20260507134726 | 12 | 149 | 11.3 | 24.1 | 0.00 | 0.00 | 0.00 | 24 | 1015.4 |
| 20260507132725 | 13 | 151 | 11.3 | 17.7 | 0.00 | 0.00 | 0.00 | 25 | 1015.4 |
| 20260507130726 | 14 | 198 | 11.3 | 22.5 | 0.00 | 0.00 | 0.00 | 26 | 1015.4 |
| 20260507124725 | 14 | 158 | 8.0 | 17.7 | 0.00 | 0.00 | 0.00 | 24 | 1015.2 |
| 20260507122725 | 15 | 139 | 11.3 | 22.5 | 0.00 | 0.00 | 0.00 | 24 | 1015.2 |
| 20260507120726 | 15 | 142 | 9.7 | 20.9 | 0.00 | 0.00 | 0.00 | 23 | 1015.1 |